createdAt,value
2023-01-31T00:01:40.925Z,23.27
2023-01-31T00:04:11.946Z,19.45
2023-01-31T00:06:42.276Z,25.92
2023-01-31T00:11:37.676Z,23.38
2023-01-31T00:14:06.511Z,27.63
2023-01-31T00:16:33.459Z,27.92
2023-01-31T00:19:00.628Z,15.68
2023-01-31T00:21:29.426Z,27.50
2023-01-31T00:23:57.357Z,31.17
2023-01-31T00:26:32.375Z,29.30
2023-01-31T00:29:02.144Z,18.15
2023-01-31T00:31:30.893Z,18.67
2023-01-31T00:33:58.663Z,16.90
2023-01-31T00:36:28.433Z,20.02
2023-01-31T00:38:59.411Z,19.27
2023-01-31T00:41:29.038Z,23.45
2023-01-31T00:43:56.076Z,20.75
2023-01-31T00:46:23.919Z,20.58
2023-01-31T00:48:51.591Z,14.13
2023-01-31T00:51:19.662Z,20.35
2023-01-31T00:53:47.088Z,22.23
2023-01-31T00:56:20.051Z,19.40
2023-01-31T00:58:46.900Z,27.33
2023-01-31T01:01:21.292Z,20.15
2023-01-31T01:03:49.066Z,24.67
2023-01-31T01:06:17.500Z,17.42
2023-01-31T01:08:45.215Z,11.15
2023-01-31T01:11:17.115Z,14.18
2023-01-31T01:13:44.698Z,16.08
2023-01-31T01:16:18.029Z,13.00
2023-01-31T01:18:48.186Z,19.55
2023-01-31T01:21:26.511Z,20.70
2023-01-31T01:23:55.905Z,20.65
2023-01-31T01:26:29.132Z,14.13
2023-01-31T01:28:57.285Z,12.88
2023-01-31T01:31:30.338Z,20.25
2023-01-31T01:34:08.170Z,18.13
2023-01-31T01:36:37.700Z,16.80
2023-01-31T01:39:07.164Z,23.13
2023-01-31T01:41:34.133Z,25.20
2023-01-31T01:44:02.858Z,13.88
2023-01-31T01:46:50.079Z,17.30
2023-01-31T01:49:37.708Z,19.25
2023-01-31T01:52:08.507Z,22.77
2023-01-31T01:54:41.752Z,26.17
2023-01-31T01:57:08.917Z,21.58
2023-01-31T01:59:42.334Z,19.85
2023-01-31T02:02:09.698Z,14.65
2023-01-31T02:04:39.311Z,21.73
2023-01-31T02:07:08.782Z,30.70
2023-01-31T02:10:01.504Z,13.32
2023-01-31T02:12:30.580Z,28.85
2023-01-31T02:14:57.519Z,21.65
2023-01-31T02:17:24.560Z,21.67
2023-01-31T02:20:29.115Z,14.38
2023-01-31T02:23:52.779Z,15.82
2023-01-31T02:26:48.564Z,17.00
2023-01-31T02:29:33.703Z,17.02
2023-01-31T02:32:28.372Z,22.55
2023-01-31T02:35:34.480Z,28.83
2023-01-31T02:38:08.710Z,26.63
2023-01-31T02:40:54.932Z,29.98
2023-01-31T02:44:11.773Z,27.80
2023-01-31T02:46:47.390Z,19.33
2023-01-31T02:49:34.698Z,38.97
2023-01-31T02:52:49.721Z,25.15
2023-01-31T02:55:44.395Z,24.93
2023-01-31T02:58:14.475Z,16.95
2023-01-31T03:00:45.622Z,16.88
2023-01-31T03:03:27.702Z,15.55
2023-01-31T03:06:36.734Z,26.33
2023-01-31T03:09:28.393Z,15.77
2023-01-31T03:12:19.478Z,28.42
2023-01-31T03:15:06.350Z,18.13
2023-01-31T03:17:38.825Z,23.58
2023-01-31T03:20:11.728Z,25.80
2023-01-31T03:22:51.775Z,21.73
2023-01-31T03:25:24.211Z,21.60
2023-01-31T03:27:57.467Z,20.00
2023-01-31T03:30:35.264Z,21.20
2023-01-31T03:33:25.729Z,13.00
2023-01-31T03:38:27.963Z,15.55
2023-01-31T03:41:15.285Z,30.85
2023-01-31T03:44:03.608Z,14.95
2023-01-31T03:46:40.074Z,20.48
2023-01-31T03:49:12.250Z,19.50
2023-01-31T03:51:45.500Z,28.17
2023-01-31T03:54:18.979Z,13.55
2023-01-31T03:56:57.572Z,19.90
2023-01-31T03:59:32.590Z,18.80
2023-01-31T04:02:02.753Z,27.23
2023-01-31T04:04:40.197Z,15.52
2023-01-31T04:07:07.185Z,19.65
2023-01-31T04:09:38.305Z,18.50
2023-01-31T04:12:05.852Z,27.73
2023-01-31T04:14:32.776Z,24.90
2023-01-31T04:16:59.688Z,19.80
2023-01-31T04:19:26.540Z,15.77
2023-01-31T04:21:53.341Z,21.13
2023-01-31T04:24:20.158Z,26.73
2023-01-31T04:26:47.117Z,19.92
2023-01-31T04:29:14.007Z,26.05
2023-01-31T04:31:41.523Z,26.63
2023-01-31T04:34:09.277Z,12.02
2023-01-31T04:36:36.480Z,12.85
2023-01-31T04:39:03.558Z,25.23
2023-01-31T04:41:30.663Z,21.88
2023-01-31T04:43:57.691Z,21.63
2023-01-31T04:46:24.712Z,21.13
2023-01-31T04:48:51.567Z,22.15
2023-01-31T04:51:18.422Z,15.02
2023-01-31T04:53:45.243Z,23.23
2023-01-31T04:56:12.219Z,24.48
2023-01-31T04:58:39.210Z,21.45
2023-01-31T05:01:06.464Z,26.23
2023-01-31T05:03:33.395Z,25.80
2023-01-31T05:06:00.251Z,12.65
2023-01-31T05:08:27.143Z,24.98
2023-01-31T05:11:04.063Z,22.38
2023-01-31T05:13:32.776Z,21.48
2023-01-31T05:15:59.912Z,26.42
2023-01-31T05:18:26.952Z,18.63
2023-01-31T05:20:53.844Z,11.40
2023-01-31T05:23:20.744Z,11.23
2023-01-31T05:25:50.711Z,14.00
2023-01-31T05:28:18.648Z,20.45
2023-01-31T05:30:45.905Z,23.52
2023-01-31T05:33:13.228Z,22.23
2023-01-31T05:35:42.146Z,20.92
2023-01-31T05:38:09.607Z,20.27
2023-01-31T05:40:36.464Z,12.98
2023-01-31T05:43:04.081Z,25.33
2023-01-31T05:45:31.605Z,15.68
2023-01-31T05:47:59.614Z,22.05
2023-01-31T05:50:26.770Z,10.90
2023-01-31T05:53:03.137Z,20.85
2023-01-31T05:55:31.173Z,21.08
2023-01-31T05:57:58.172Z,21.63
2023-01-31T06:00:25.029Z,23.98
2023-01-31T06:02:51.876Z,12.68
2023-01-31T06:05:19.143Z,24.35
2023-01-31T06:07:46.134Z,14.10
2023-01-31T06:10:13.770Z,17.73
2023-01-31T06:12:40.733Z,22.33
2023-01-31T06:15:08.004Z,14.57
2023-01-31T06:17:34.921Z,22.67
2023-01-31T06:20:01.849Z,14.63
2023-01-31T06:22:28.907Z,16.15
2023-01-31T06:24:55.739Z,16.77
2023-01-31T06:27:22.600Z,25.10
2023-01-31T06:29:49.405Z,18.25
2023-01-31T06:32:16.254Z,21.88
2023-01-31T06:34:43.152Z,19.75
2023-01-31T06:37:11.106Z,16.38
2023-01-31T06:39:37.921Z,16.50
2023-01-31T06:42:05.332Z,14.15
2023-01-31T06:44:33.546Z,14.43
2023-01-31T06:47:01.417Z,15.82
2023-01-31T06:49:28.542Z,21.60
2023-01-31T06:51:55.632Z,18.35
2023-01-31T06:54:22.500Z,18.25
2023-01-31T06:56:49.415Z,9.95
2023-01-31T06:59:16.233Z,19.20
2023-01-31T07:01:43.153Z,13.82
2023-01-31T07:04:09.985Z,22.33
2023-01-31T07:06:36.839Z,16.65
2023-01-31T07:09:04.221Z,26.50
2023-01-31T07:11:31.524Z,13.13
2023-01-31T07:13:58.510Z,16.85
2023-01-31T07:16:26.102Z,18.77
2023-01-31T07:18:54.225Z,20.98
2023-01-31T07:21:22.769Z,14.80
2023-01-31T07:23:49.735Z,17.80
2023-01-31T07:26:17.089Z,17.45
2023-01-31T07:28:43.981Z,16.27
2023-01-31T07:31:13.509Z,11.15
2023-01-31T07:33:40.741Z,11.43
2023-01-31T07:36:10.342Z,12.52
2023-01-31T07:38:37.170Z,12.75
2023-01-31T07:41:04.907Z,10.18
2023-01-31T07:43:32.642Z,16.50
2023-01-31T07:45:59.773Z,15.55
2023-01-31T07:48:27.459Z,7.80
2023-01-31T07:51:00.295Z,12.95
2023-01-31T07:53:30.512Z,16.65
2023-01-31T07:58:39.654Z,11.88
2023-01-31T08:01:25.128Z,17.70
2023-01-31T08:03:52.937Z,13.38
2023-01-31T08:06:20.010Z,17.83
2023-01-31T08:08:47.538Z,12.85
2023-01-31T08:11:14.713Z,18.58
2023-01-31T08:16:23.216Z,8.40
2023-01-31T08:18:51.326Z,12.48
2023-01-31T08:21:19.077Z,11.85
2023-01-31T08:23:46.914Z,14.35
2023-01-31T08:26:20.427Z,17.50
2023-01-31T08:28:49.815Z,12.18
2023-01-31T08:31:23.258Z,17.97
2023-01-31T08:33:53.447Z,19.15
2023-01-31T08:36:31.675Z,11.93
2023-01-31T08:38:59.232Z,14.07
2023-01-31T08:41:27.592Z,16.73
2023-01-31T08:43:57.982Z,15.18
2023-01-31T08:46:27.496Z,10.70
2023-01-31T08:48:54.801Z,19.42
2023-01-31T08:51:22.265Z,16.80
2023-01-31T08:53:49.668Z,19.10
2023-01-31T08:56:17.137Z,22.10
2023-01-31T08:58:44.780Z,19.40
2023-01-31T09:01:14.828Z,14.25
2023-01-31T09:03:43.829Z,7.72
2023-01-31T09:06:15.170Z,10.20
2023-01-31T09:08:42.074Z,14.98
2023-01-31T09:11:09.408Z,19.58
2023-01-31T09:13:36.743Z,29.15
2023-01-31T09:16:11.301Z,20.80
2023-01-31T09:18:39.675Z,22.80
2023-01-31T09:21:14.948Z,14.55
2023-01-31T09:23:42.967Z,20.42
2023-01-31T09:26:11.831Z,17.42
2023-01-31T09:28:40.031Z,15.27
2023-01-31T09:31:09.817Z,16.95
2023-01-31T09:33:37.234Z,21.77
2023-01-31T09:36:16.276Z,18.92
2023-01-31T09:38:43.307Z,17.05
2023-01-31T09:41:40.154Z,13.07
2023-01-31T09:44:24.099Z,23.05
2023-01-31T09:47:13.312Z,18.17
2023-01-31T09:50:10.254Z,16.73
2023-01-31T09:52:38.321Z,26.40
2023-01-31T09:55:08.210Z,21.83
2023-01-31T09:57:58.696Z,21.60
2023-01-31T10:03:19.874Z,15.07
2023-01-31T10:06:12.081Z,20.98
2023-01-31T10:08:47.776Z,16.15
2023-01-31T10:11:30.670Z,20.73
2023-01-31T10:14:35.213Z,10.73
2023-01-31T10:17:22.799Z,16.02
2023-01-31T10:19:53.554Z,18.88
2023-01-31T10:22:47.275Z,20.80
2023-01-31T10:25:25.477Z,20.23
2023-01-31T10:28:03.546Z,27.25
2023-01-31T10:31:01.029Z,20.70
2023-01-31T10:33:59.009Z,16.92
2023-01-31T10:36:38.114Z,11.75
2023-01-31T10:39:16.464Z,19.17
2023-01-31T10:41:47.936Z,18.30
2023-01-31T10:44:31.280Z,20.30
2023-01-31T10:47:00.294Z,21.35
2023-01-31T10:49:28.293Z,18.75
2023-01-31T10:52:02.097Z,16.42
2023-01-31T10:54:52.642Z,23.55
2023-01-31T10:57:19.848Z,19.10
2023-01-31T10:59:47.999Z,17.05
2023-01-31T11:02:28.618Z,25.05
2023-01-31T11:04:59.620Z,27.40
2023-01-31T11:07:30.781Z,17.77
2023-01-31T11:09:58.634Z,22.95
2023-01-31T11:13:07.951Z,18.10
2023-01-31T11:15:41.191Z,21.80
2023-01-31T11:18:14.918Z,15.88
2023-01-31T11:20:47.159Z,19.77
2023-01-31T11:23:21.909Z,20.83
2023-01-31T11:25:51.514Z,19.08
2023-01-31T11:28:39.546Z,26.77
2023-01-31T11:31:30.836Z,25.13
2023-01-31T11:34:03.849Z,21.90
2023-01-31T11:36:43.143Z,31.73
2023-01-31T11:39:32.107Z,19.42
2023-01-31T11:42:12.142Z,28.52
2023-01-31T11:45:04.890Z,16.17
2023-01-31T11:47:39.938Z,12.60
2023-01-31T11:50:07.638Z,17.70
2023-01-31T11:52:35.358Z,16.10
2023-01-31T11:55:08.147Z,17.85
2023-01-31T11:57:40.477Z,11.98
2023-01-31T12:00:32.620Z,17.23
2023-01-31T12:03:08.733Z,15.18
2023-01-31T12:05:45.163Z,14.30
2023-01-31T12:08:32.053Z,13.98
2023-01-31T12:10:59.342Z,20.85
2023-01-31T12:13:26.460Z,18.83
2023-01-31T12:16:00.522Z,14.50
2023-01-31T12:18:59.853Z,17.52
2023-01-31T12:22:09.631Z,12.43
2023-01-31T12:24:55.385Z,14.07
2023-01-31T12:27:46.169Z,16.20
2023-01-31T12:30:40.323Z,13.55
2023-01-31T12:33:31.427Z,11.90
2023-01-31T12:36:42.700Z,18.80
2023-01-31T12:39:24.686Z,21.13
2023-01-31T12:42:15.598Z,15.32
2023-01-31T12:44:47.390Z,16.08
2023-01-31T12:47:17.005Z,13.70
2023-01-31T12:50:37.601Z,19.88
2023-01-31T12:53:04.464Z,20.20
2023-01-31T12:55:31.333Z,19.17
2023-01-31T12:58:35.867Z,18.90
2023-01-31T13:01:11.998Z,18.80
2023-01-31T13:04:00.271Z,9.57
2023-01-31T13:06:49.436Z,18.92
2023-01-31T13:09:26.969Z,13.02
2023-01-31T13:12:15.755Z,8.32
2023-01-31T13:14:54.594Z,14.30
2023-01-31T13:17:26.258Z,15.32
2023-01-31T13:19:57.381Z,12.27
2023-01-31T13:22:29.739Z,14.25
2023-01-31T13:25:21.121Z,14.43
2023-01-31T13:27:55.749Z,9.45
2023-01-31T13:30:56.429Z,9.35
2023-01-31T13:33:44.812Z,9.55
2023-01-31T13:36:22.687Z,14.55
2023-01-31T13:38:50.562Z,8.38
2023-01-31T13:41:36.929Z,10.07
2023-01-31T13:44:03.917Z,10.20
2023-01-31T13:46:39.393Z,10.90
2023-01-31T13:49:21.798Z,11.35
2023-01-31T13:51:59.473Z,9.15
2023-01-31T13:54:40.214Z,9.48
2023-01-31T13:57:08.093Z,16.70
2023-01-31T13:59:40.198Z,9.35
2023-01-31T14:02:18.587Z,7.20
2023-01-31T14:04:47.273Z,11.07
2023-01-31T14:07:17.135Z,14.55
2023-01-31T14:09:49.723Z,15.90
2023-01-31T14:12:19.775Z,14.00
2023-01-31T14:14:51.498Z,17.15
2023-01-31T14:17:21.472Z,7.90
2023-01-31T14:19:49.287Z,16.90
2023-01-31T14:22:34.980Z,13.10
2023-01-31T14:25:05.667Z,14.40
2023-01-31T14:28:01.536Z,15.35
2023-01-31T14:30:36.268Z,8.93
2023-01-31T14:33:05.388Z,13.82
2023-01-31T14:36:04.569Z,12.02
2023-01-31T14:38:40.305Z,8.73
2023-01-31T14:41:10.254Z,9.98
2023-01-31T14:44:12.241Z,9.85
2023-01-31T14:47:08.506Z,9.50
2023-01-31T14:50:07.612Z,4.05
2023-01-31T14:53:06.399Z,3.00
2023-01-31T14:56:05.136Z,4.57
2023-01-31T14:58:35.027Z,3.40
2023-01-31T15:01:07.448Z,4.75
2023-01-31T15:03:35.906Z,7.28
2023-01-31T15:06:23.038Z,7.28
2023-01-31T15:08:59.169Z,5.38
2023-01-31T15:11:41.030Z,4.93
2023-01-31T15:14:35.669Z,5.47
2023-01-31T15:17:17.455Z,4.88
2023-01-31T15:20:28.373Z,4.07
2023-01-31T15:22:59.083Z,6.05
2023-01-31T15:25:42.404Z,5.75
2023-01-31T15:28:15.995Z,4.95
2023-01-31T15:30:44.459Z,4.88
2023-01-31T15:33:38.041Z,5.38
2023-01-31T15:36:30.212Z,3.78
2023-01-31T15:39:20.303Z,8.15
2023-01-31T15:41:47.168Z,9.25
2023-01-31T15:44:26.913Z,6.40
2023-01-31T15:46:56.308Z,7.22
2023-01-31T15:49:39.496Z,6.13
2023-01-31T15:52:22.500Z,4.65
2023-01-31T15:55:02.867Z,5.80
2023-01-31T16:00:08.622Z,4.90
2023-01-31T16:02:36.167Z,8.30
2023-01-31T16:05:06.711Z,4.30
2023-01-31T16:07:34.662Z,5.25
2023-01-31T16:10:02.292Z,10.60
2023-01-31T16:12:31.523Z,3.97
2023-01-31T16:15:04.396Z,7.55
2023-01-31T16:17:31.466Z,7.53
2023-01-31T16:19:58.440Z,3.40
2023-01-31T16:22:32.126Z,3.92
2023-01-31T16:25:01.744Z,4.53
2023-01-31T16:27:33.178Z,3.65
2023-01-31T16:30:00.608Z,11.05
2023-01-31T16:32:37.669Z,6.43
2023-01-31T16:35:08.122Z,3.30
2023-01-31T16:37:38.074Z,4.10
2023-01-31T16:40:25.410Z,5.30
2023-01-31T16:43:18.601Z,6.60
2023-01-31T16:46:03.921Z,5.70
2023-01-31T16:48:36.592Z,2.60
2023-01-31T16:51:22.147Z,4.32
2023-01-31T16:54:23.407Z,4.00
2023-01-31T16:57:02.293Z,7.97
2023-01-31T16:59:37.396Z,4.93
2023-01-31T17:02:10.920Z,4.47
2023-01-31T17:04:42.181Z,5.43
2023-01-31T17:07:16.966Z,9.98
2023-01-31T17:09:44.229Z,5.63
2023-01-31T17:12:19.741Z,5.22
2023-01-31T17:14:47.191Z,5.55
2023-01-31T17:17:20.696Z,4.65
2023-01-31T17:19:48.737Z,8.18
2023-01-31T17:22:15.721Z,5.10
2023-01-31T17:24:42.681Z,7.20
2023-01-31T17:27:14.662Z,9.77
2023-01-31T17:29:42.374Z,8.50
2023-01-31T17:32:12.971Z,9.65
2023-01-31T17:34:40.647Z,6.43
2023-01-31T17:37:07.864Z,7.50
2023-01-31T17:39:35.025Z,6.47
2023-01-31T17:42:01.920Z,9.35
2023-01-31T17:44:28.848Z,7.05
2023-01-31T17:46:55.683Z,9.68
2023-01-31T17:49:22.725Z,10.45
2023-01-31T17:51:49.637Z,6.93
2023-01-31T17:54:16.517Z,5.60
2023-01-31T17:56:43.477Z,9.70
2023-01-31T17:59:18.298Z,10.85
2023-01-31T18:01:52.350Z,13.05
2023-01-31T18:04:19.166Z,9.30
2023-01-31T18:06:46.000Z,10.77
2023-01-31T18:09:15.648Z,10.98
2023-01-31T18:11:43.843Z,14.15
2023-01-31T18:14:11.590Z,22.98
2023-01-31T18:16:38.779Z,14.55
2023-01-31T18:19:05.783Z,17.83
2023-01-31T18:21:32.917Z,13.23
2023-01-31T18:24:01.671Z,14.75
2023-01-31T18:26:28.993Z,14.93
2023-01-31T18:28:57.600Z,17.02
2023-01-31T18:31:25.164Z,18.42
2023-01-31T18:33:52.084Z,15.98
2023-01-31T18:36:20.829Z,15.98
2023-01-31T18:38:49.339Z,17.73
2023-01-31T18:41:18.991Z,15.45
2023-01-31T18:43:46.534Z,13.68
2023-01-31T18:46:13.682Z,14.00
2023-01-31T18:48:40.746Z,11.93
2023-01-31T18:51:10.879Z,18.27
2023-01-31T18:53:40.330Z,18.77
2023-01-31T18:56:10.601Z,13.07
2023-01-31T18:58:39.439Z,12.00
2023-01-31T19:01:14.855Z,13.52
2023-01-31T19:03:42.835Z,12.32
2023-01-31T19:06:16.080Z,10.73
2023-01-31T19:08:43.566Z,16.23
2023-01-31T19:11:13.970Z,12.77
2023-01-31T19:13:41.867Z,15.63
2023-01-31T19:16:11.223Z,17.17
2023-01-31T19:18:38.955Z,17.83
2023-01-31T19:21:19.488Z,13.63
2023-01-31T19:23:49.134Z,16.33
2023-01-31T19:26:17.490Z,18.25
2023-01-31T19:28:46.153Z,19.17
2023-01-31T19:31:15.905Z,19.17
2023-01-31T19:33:43.224Z,16.63
2023-01-31T19:36:11.666Z,11.25
2023-01-31T19:38:38.992Z,15.35
2023-01-31T19:41:19.068Z,14.40
2023-01-31T19:43:56.164Z,15.52
2023-01-31T19:46:25.145Z,19.25
2023-01-31T19:48:52.039Z,22.50
2023-01-31T19:51:20.820Z,16.52
2023-01-31T19:53:48.355Z,16.38
2023-01-31T19:56:16.046Z,19.35
2023-01-31T19:58:43.247Z,15.98
2023-01-31T20:01:16.133Z,19.33
2023-01-31T20:03:44.207Z,14.23
2023-01-31T20:06:16.580Z,21.45
2023-01-31T20:08:43.937Z,15.52
2023-01-31T20:11:11.322Z,18.00
2023-01-31T20:13:38.205Z,12.73
2023-01-31T20:16:11.276Z,15.45
2023-01-31T20:18:39.689Z,13.95
2023-01-31T20:21:08.147Z,23.15
2023-01-31T20:23:35.393Z,10.30
2023-01-31T20:26:03.240Z,10.77
2023-01-31T20:28:30.621Z,21.17
2023-01-31T20:31:04.111Z,13.70
2023-01-31T20:33:30.940Z,20.52
2023-01-31T20:35:57.932Z,16.70
2023-01-31T20:38:25.514Z,15.68
2023-01-31T20:40:53.707Z,18.85
2023-01-31T20:43:22.885Z,17.02
2023-01-31T20:45:50.523Z,11.15
2023-01-31T20:48:18.162Z,13.20
2023-01-31T20:50:53.436Z,28.35
2023-01-31T20:53:20.920Z,17.63
2023-01-31T20:55:58.678Z,17.77
2023-01-31T20:58:26.963Z,27.40
2023-01-31T21:00:56.058Z,20.95
2023-01-31T21:03:23.837Z,19.02
2023-01-31T21:05:52.180Z,18.80
2023-01-31T21:08:21.129Z,14.65
2023-01-31T21:10:53.174Z,22.33
2023-01-31T21:13:20.949Z,19.60
2023-01-31T21:15:54.786Z,21.88
2023-01-31T21:18:24.519Z,23.25
2023-01-31T21:20:52.097Z,20.13
2023-01-31T21:23:18.957Z,16.60
2023-01-31T21:25:45.813Z,16.45
2023-01-31T21:28:12.721Z,21.95
2023-01-31T21:30:40.265Z,18.38
2023-01-31T21:33:07.731Z,19.55
2023-01-31T21:35:34.722Z,23.58
2023-01-31T21:38:01.583Z,26.77
2023-01-31T21:40:28.819Z,23.90
2023-01-31T21:42:55.702Z,19.60
2023-01-31T21:45:39.641Z,21.67
2023-01-31T21:48:27.196Z,17.38
2023-01-31T21:50:54.413Z,25.45
2023-01-31T21:53:21.450Z,19.63
2023-01-31T21:55:48.705Z,21.27
2023-01-31T21:58:20.855Z,19.02
2023-01-31T22:00:48.156Z,16.65
2023-01-31T22:03:15.385Z,22.42
2023-01-31T22:05:42.611Z,27.85
2023-01-31T22:08:14.648Z,16.13
2023-01-31T22:10:41.889Z,25.02
2023-01-31T22:13:09.186Z,19.92
2023-01-31T22:15:36.446Z,18.45
2023-01-31T22:18:03.770Z,22.77
2023-01-31T22:20:30.601Z,32.70
2023-01-31T22:22:57.856Z,17.75
2023-01-31T22:25:24.825Z,24.95
2023-01-31T22:27:52.427Z,28.55
2023-01-31T22:30:19.650Z,25.70
2023-01-31T22:32:46.983Z,21.00
2023-01-31T22:35:14.242Z,26.58
2023-01-31T22:37:41.747Z,21.50
2023-01-31T22:40:09.362Z,19.85
2023-01-31T22:42:36.743Z,20.55
2023-01-31T22:45:04.177Z,24.45
2023-01-31T22:47:33.504Z,21.03
2023-01-31T22:50:00.308Z,18.65
2023-01-31T22:52:29.559Z,16.20
2023-01-31T22:54:56.361Z,15.75
2023-01-31T22:57:23.939Z,23.27
2023-01-31T22:59:51.173Z,20.00
2023-01-31T23:02:18.506Z,17.60
2023-01-31T23:04:45.763Z,23.13
2023-01-31T23:07:12.677Z,23.10
2023-01-31T23:09:39.895Z,26.77
2023-01-31T23:12:06.936Z,31.20
2023-01-31T23:14:34.574Z,26.35
2023-01-31T23:17:20.455Z,21.15
2023-01-31T23:19:47.744Z,25.58
2023-01-31T23:22:15.430Z,18.40
2023-01-31T23:24:42.331Z,22.33
2023-01-31T23:27:09.909Z,18.85
2023-01-31T23:29:37.371Z,21.23
2023-01-31T23:32:04.797Z,18.55
2023-01-31T23:34:32.057Z,25.75
2023-01-31T23:36:59.793Z,17.83
2023-01-31T23:39:26.630Z,24.20
2023-01-31T23:41:53.865Z,20.95
2023-01-31T23:44:21.126Z,20.75
2023-01-31T23:46:47.953Z,15.35
2023-01-31T23:49:14.768Z,17.33
2023-01-31T23:51:42.032Z,21.10
2023-01-31T23:54:10.498Z,25.83
2023-01-31T23:56:37.425Z,28.17
2023-01-31T23:59:04.812Z,39.42
